Blairsden-graeagle, California
Current Conditions -  °F | °C
As of 5:52 AM on Friday 24 Oct 2014 (Local Time) from KBLU Reporting Station
Clear Clear  
Wind Chill: 53°   Ceiling: Unl
Heat Index: 53°   Visibility: 10mi
Dew Point: 27°   Wind: 8mph
Humidity: 37%   Direction: 140°SE
Pressure: 30.11"   Gusts: 17mph
Location:  39.82°N, 120.66°W
Report Text: KBLU 241252Z AUTO 14007G15KT 10SM CLR 12/M03 A3011 RMK AO2 SLP152 T01171028 $
Loading
Personal Weather Stations






























Interactive Weather Map
Tropical Storm Tracking
New forecast layout! Learn more

10-Day Weather Forecast

Advertisements
Track Severe Weather on mobile